createdAt,value
2022-11-26T00:00:44.522Z,16.93
2022-11-26T00:03:12.397Z,15.90
2022-11-26T00:05:40.872Z,17.03
2022-11-26T00:08:17.360Z,17.17
2022-11-26T00:10:45.254Z,17.50
2022-11-26T00:13:17.904Z,19.77
2022-11-26T00:15:46.849Z,17.63
2022-11-26T00:18:14.981Z,19.50
2022-11-26T00:20:43.157Z,19.23
2022-11-26T00:23:17.266Z,17.73
2022-11-26T00:25:46.064Z,19.83
2022-11-26T00:28:27.930Z,17.83
2022-11-26T00:30:59.455Z,18.57
2022-11-26T00:33:27.991Z,18.97
2022-11-26T00:35:57.685Z,18.67
2022-11-26T00:38:25.493Z,18.73
2022-11-26T00:40:53.412Z,18.97
2022-11-26T00:43:20.965Z,17.83
2022-11-26T00:45:50.439Z,19.03
2022-11-26T00:48:19.508Z,17.83
2022-11-26T00:50:49.220Z,18.03
2022-11-26T00:53:19.124Z,16.90
2022-11-26T00:55:49.261Z,17.40
2022-11-26T00:58:23.788Z,17.67
2022-11-26T01:00:51.989Z,17.13
2022-11-26T01:03:21.096Z,17.10
2022-11-26T01:05:50.811Z,18.43
2022-11-26T01:08:27.859Z,18.70
2022-11-26T01:10:55.461Z,17.27
2022-11-26T01:13:23.160Z,17.73
2022-11-26T01:15:50.903Z,17.30
2022-11-26T01:18:21.390Z,16.43
2022-11-26T01:20:49.490Z,18.70
2022-11-26T01:23:19.143Z,18.23
2022-11-26T01:25:47.643Z,17.90
2022-11-26T01:28:17.814Z,17.37
2022-11-26T01:30:46.073Z,18.50
2022-11-26T01:33:13.654Z,19.00
2022-11-26T01:35:42.573Z,18.23
2022-11-26T01:38:12.580Z,17.73
2022-11-26T01:40:50.747Z,17.37
2022-11-26T01:43:24.082Z,18.23
2022-11-26T01:45:51.806Z,19.00
2022-11-26T01:48:24.619Z,19.00
2022-11-26T01:50:57.628Z,17.83
2022-11-26T01:53:32.428Z,17.30
2022-11-26T01:56:05.417Z,17.93
2022-11-26T01:58:39.660Z,19.73
2022-11-26T02:01:08.230Z,19.17
2022-11-26T02:03:40.930Z,19.60
2022-11-26T02:06:13.134Z,18.70
2022-11-26T02:08:40.869Z,18.70
2022-11-26T02:11:17.276Z,20.17
2022-11-26T02:13:45.828Z,18.30
2022-11-26T02:16:19.268Z,18.90
2022-11-26T02:18:54.195Z,17.20
2022-11-26T02:21:27.542Z,17.87
2022-11-26T02:24:37.054Z,16.53
2022-11-26T02:27:28.723Z,16.63
2022-11-26T02:30:09.546Z,15.73
2022-11-26T02:32:59.257Z,16.47
2022-11-26T02:35:33.037Z,17.60
2022-11-26T02:38:03.597Z,17.67
2022-11-26T02:40:31.202Z,18.57
2022-11-26T02:42:59.108Z,17.43
2022-11-26T02:45:30.967Z,17.17
2022-11-26T02:48:00.551Z,17.50
2022-11-26T02:50:32.288Z,16.67
2022-11-26T02:53:00.574Z,16.33
2022-11-26T02:55:31.513Z,16.73
2022-11-26T02:57:59.422Z,15.67
2022-11-26T03:00:28.405Z,16.90
2022-11-26T03:03:01.595Z,17.13
2022-11-26T03:05:32.906Z,18.00
2022-11-26T03:08:01.151Z,17.27
2022-11-26T03:10:30.122Z,17.00
2022-11-26T03:12:57.737Z,18.20
2022-11-26T03:15:25.587Z,18.10
2022-11-26T03:17:54.493Z,19.77
2022-11-26T03:20:22.145Z,18.93
2022-11-26T03:22:49.739Z,17.97
2022-11-26T03:25:17.678Z,17.70
2022-11-26T03:27:45.279Z,18.53
2022-11-26T03:30:13.736Z,18.13
2022-11-26T03:32:41.513Z,18.57
2022-11-26T03:35:11.036Z,21.37
2022-11-26T03:37:38.693Z,19.90
2022-11-26T03:40:07.838Z,18.67
2022-11-26T03:42:35.448Z,18.27
2022-11-26T03:45:03.011Z,17.93
2022-11-26T03:47:30.627Z,18.07
2022-11-26T03:49:58.255Z,17.97
2022-11-26T03:52:27.347Z,19.00
2022-11-26T03:54:54.960Z,18.43
2022-11-26T03:57:22.777Z,17.47
2022-11-26T03:59:50.380Z,18.07
2022-11-26T04:02:17.955Z,19.30
2022-11-26T04:04:45.548Z,18.37
2022-11-26T04:07:13.286Z,18.03
2022-11-26T04:09:42.264Z,17.73
2022-11-26T04:12:09.865Z,19.83
2022-11-26T04:14:37.766Z,19.03
2022-11-26T04:17:05.519Z,17.47
2022-11-26T04:19:33.402Z,17.63
2022-11-26T04:22:00.980Z,18.10
2022-11-26T04:24:29.042Z,17.97
2022-11-26T04:26:57.987Z,17.97
2022-11-26T04:29:25.553Z,17.83
2022-11-26T04:31:53.381Z,18.67
2022-11-26T04:34:21.078Z,18.03
2022-11-26T04:36:48.752Z,17.33
2022-11-26T04:39:16.384Z,16.90
2022-11-26T04:41:44.191Z,17.07
2022-11-26T04:44:13.126Z,16.97
2022-11-26T04:46:40.710Z,17.47
2022-11-26T04:49:08.693Z,17.07
2022-11-26T04:51:36.290Z,18.00
2022-11-26T04:54:06.421Z,17.33
2022-11-26T04:56:36.239Z,17.93
2022-11-26T04:59:03.949Z,18.10
2022-11-26T05:01:32.917Z,17.30
2022-11-26T05:04:00.535Z,17.73
2022-11-26T05:06:28.655Z,16.53
2022-11-26T05:08:56.230Z,16.53
2022-11-26T05:11:23.778Z,17.73
2022-11-26T05:13:51.369Z,16.90
2022-11-26T05:16:18.955Z,16.43
2022-11-26T05:18:47.889Z,16.30
2022-11-26T05:21:15.453Z,16.53
2022-11-26T05:23:43.074Z,17.63
2022-11-26T05:26:10.646Z,16.00
2022-11-26T05:28:38.211Z,15.67
2022-11-26T05:31:06.799Z,17.67
2022-11-26T05:33:34.390Z,16.83
2022-11-26T05:36:03.297Z,16.07
2022-11-26T05:38:31.080Z,14.43
2022-11-26T05:40:58.801Z,15.73
2022-11-26T05:43:26.435Z,14.77
2022-11-26T05:45:54.106Z,15.53
2022-11-26T05:48:21.763Z,16.47
2022-11-26T05:50:54.354Z,15.00
2022-11-26T05:53:23.541Z,15.97
2022-11-26T05:55:51.203Z,15.07
2022-11-26T05:58:18.910Z,14.93
2022-11-26T06:00:46.710Z,14.03
2022-11-26T06:03:19.623Z,14.82
2022-11-26T06:05:47.798Z,14.20
2022-11-26T06:08:15.411Z,15.13
2022-11-26T06:10:44.903Z,15.70
2022-11-26T06:13:12.484Z,15.70
2022-11-26T06:15:40.081Z,15.20
2022-11-26T06:18:07.637Z,15.77
2022-11-26T06:20:35.437Z,14.37
2022-11-26T06:23:03.093Z,16.17
2022-11-26T06:25:30.685Z,15.10
2022-11-26T06:27:59.590Z,14.27
2022-11-26T06:30:27.177Z,16.43
2022-11-26T06:32:55.110Z,20.73
2022-11-26T06:35:22.694Z,22.30
2022-11-26T06:37:50.311Z,18.03
2022-11-26T06:40:20.565Z,19.67
2022-11-26T06:42:51.610Z,19.60
2022-11-26T06:45:20.760Z,18.37
2022-11-26T06:47:50.156Z,16.77
2022-11-26T06:50:19.044Z,14.80
2022-11-26T06:52:46.762Z,17.17
2022-11-26T06:55:14.436Z,16.63
2022-11-26T06:57:42.173Z,15.07
2022-11-26T07:00:10.894Z,15.43
2022-11-26T07:02:39.886Z,16.23
2022-11-26T07:05:07.896Z,16.40
2022-11-26T07:07:37.760Z,14.77
2022-11-26T07:10:06.366Z,15.47
2022-11-26T07:12:34.067Z,16.97
2022-11-26T07:15:01.643Z,16.27
2022-11-26T07:17:29.796Z,14.57
2022-11-26T07:19:58.722Z,14.40
2022-11-26T07:22:26.348Z,14.43
2022-11-26T07:24:53.947Z,14.07
2022-11-26T07:27:21.522Z,12.77
2022-11-26T07:29:49.069Z,12.30
2022-11-26T07:32:16.713Z,13.80
2022-11-26T07:34:44.267Z,13.83
2022-11-26T07:37:13.242Z,14.43
2022-11-26T07:39:40.812Z,12.83
2022-11-26T07:42:08.407Z,13.47
2022-11-26T07:44:36.150Z,13.53
2022-11-26T07:47:04.378Z,14.13
2022-11-26T07:49:31.973Z,13.90
2022-11-26T07:51:59.580Z,14.87
2022-11-26T07:54:28.563Z,13.77
2022-11-26T07:56:56.145Z,14.83
2022-11-26T07:59:23.919Z,13.10
2022-11-26T08:01:51.664Z,14.10
2022-11-26T08:04:19.270Z,13.63
2022-11-26T08:06:46.881Z,14.87
2022-11-26T08:09:14.451Z,14.37
2022-11-26T08:11:43.409Z,15.17
2022-11-26T08:14:12.852Z,14.80
2022-11-26T08:16:40.780Z,14.47
2022-11-26T08:19:12.546Z,14.53
2022-11-26T08:21:40.503Z,14.07
2022-11-26T08:24:09.342Z,13.23
2022-11-26T08:26:43.595Z,12.60
2022-11-26T08:29:13.090Z,13.70
2022-11-26T08:31:45.784Z,13.60
2022-11-26T08:34:16.469Z,14.00
2022-11-26T08:36:44.583Z,14.27
2022-11-26T08:39:14.038Z,14.97
2022-11-26T08:41:41.663Z,14.10
2022-11-26T08:44:09.299Z,12.87
2022-11-26T08:46:39.917Z,12.73
2022-11-26T08:49:13.436Z,12.77
2022-11-26T08:51:41.225Z,12.30
2022-11-26T08:54:08.860Z,13.07
2022-11-26T08:56:36.743Z,13.23
2022-11-26T08:59:04.460Z,12.53
2022-11-26T09:01:33.596Z,13.57
2022-11-26T09:04:04.809Z,13.93
2022-11-26T09:06:34.051Z,13.97
2022-11-26T09:09:14.502Z,12.60
2022-11-26T09:11:45.480Z,12.73
2022-11-26T09:14:13.851Z,12.67
2022-11-26T09:16:41.565Z,12.63
2022-11-26T09:19:12.562Z,13.20
2022-11-26T09:21:40.123Z,13.53
2022-11-26T09:24:08.176Z,13.97
2022-11-26T09:26:36.118Z,12.90
2022-11-26T09:29:04.615Z,11.57
2022-11-26T09:31:32.582Z,12.50
2022-11-26T09:34:01.684Z,10.77
2022-11-26T09:36:30.683Z,10.77
2022-11-26T09:38:59.156Z,11.40
2022-11-26T09:41:39.716Z,11.70
2022-11-26T09:44:22.151Z,10.10
2022-11-26T09:47:11.474Z,10.47
2022-11-26T09:49:48.547Z,10.07
2022-11-26T09:52:19.977Z,10.47
2022-11-26T09:54:48.806Z,10.57
2022-11-26T09:57:21.850Z,10.27
2022-11-26T09:59:50.782Z,9.73
2022-11-26T10:02:18.557Z,10.90
2022-11-26T10:04:47.177Z,9.57
2022-11-26T10:07:30.784Z,8.93
2022-11-26T10:10:03.684Z,9.27
2022-11-26T10:12:56.554Z,9.27
2022-11-26T10:15:33.097Z,8.43
2022-11-26T10:18:08.118Z,9.80
2022-11-26T10:20:51.219Z,9.83
2022-11-26T10:23:26.626Z,8.20
2022-11-26T10:25:56.200Z,8.57
2022-11-26T10:28:27.593Z,8.00
2022-11-26T10:30:58.859Z,7.13
2022-11-26T10:33:28.860Z,8.83
2022-11-26T10:35:56.427Z,6.93
2022-11-26T10:38:25.389Z,6.70
2022-11-26T10:40:53.554Z,8.73
2022-11-26T10:43:23.916Z,6.93
2022-11-26T10:45:52.989Z,6.63
2022-11-26T10:48:24.217Z,7.80
2022-11-26T10:51:00.630Z,7.53
2022-11-26T10:53:32.501Z,8.47
2022-11-26T10:56:01.689Z,7.87
2022-11-26T10:58:31.839Z,8.57
2022-11-26T11:01:02.505Z,7.30
2022-11-26T11:04:05.977Z,7.53
2022-11-26T11:06:39.914Z,7.40
2022-11-26T11:09:26.596Z,7.97
2022-11-26T11:12:25.674Z,8.20
2022-11-26T11:14:53.893Z,8.83
2022-11-26T11:17:36.728Z,8.33
2022-11-26T11:20:24.411Z,8.17
2022-11-26T11:22:59.032Z,8.10
2022-11-26T11:25:30.373Z,9.17
2022-11-26T11:28:02.134Z,8.47
2022-11-26T11:30:32.289Z,7.30
2022-11-26T11:33:12.223Z,7.40
2022-11-26T11:35:40.090Z,7.73
2022-11-26T11:38:23.838Z,7.57
2022-11-26T11:40:53.243Z,7.63
2022-11-26T11:43:23.055Z,7.67
2022-11-26T11:45:57.275Z,6.50
2022-11-26T11:48:32.935Z,7.63
2022-11-26T11:51:08.833Z,7.07
2022-11-26T11:53:41.489Z,6.63
2022-11-26T11:56:26.097Z,6.67
2022-11-26T11:59:37.062Z,5.90
2022-11-26T12:02:21.117Z,7.07
2022-11-26T12:05:01.715Z,5.77
2022-11-26T12:07:36.658Z,5.83
2022-11-26T12:10:12.720Z,7.60
2022-11-26T12:12:45.603Z,6.93
2022-11-26T12:15:18.993Z,7.40
2022-11-26T12:17:49.860Z,6.70
2022-11-26T12:20:23.757Z,6.77
2022-11-26T12:22:58.073Z,6.20
2022-11-26T12:25:35.194Z,5.93
2022-11-26T12:28:11.602Z,8.47
2022-11-26T12:30:46.198Z,7.87
2022-11-26T12:33:18.045Z,7.60
2022-11-26T12:35:49.541Z,6.97
2022-11-26T12:38:20.431Z,7.40
2022-11-26T12:40:50.651Z,7.03
2022-11-26T12:43:22.585Z,7.53
2022-11-26T12:45:52.768Z,8.20
2022-11-26T12:48:30.013Z,8.07
2022-11-26T12:51:00.307Z,9.50
2022-11-26T12:53:35.296Z,10.33
2022-11-26T12:56:10.174Z,9.57
2022-11-26T12:58:48.158Z,8.63
2022-11-26T13:01:15.852Z,8.43
2022-11-26T13:03:43.509Z,9.90
2022-11-26T13:06:19.036Z,9.03
2022-11-26T13:08:50.870Z,9.60
2022-11-26T13:11:27.605Z,8.83
2022-11-26T13:14:00.264Z,8.70
2022-11-26T13:16:34.740Z,8.93
2022-11-26T13:19:07.072Z,10.13
2022-11-26T13:21:43.879Z,8.30
2022-11-26T13:24:27.779Z,7.87
2022-11-26T13:27:07.527Z,7.63
2022-11-26T13:30:05.358Z,6.60
2022-11-26T13:33:01.950Z,8.03
2022-11-26T13:35:45.909Z,7.03
2022-11-26T13:38:20.746Z,8.27
2022-11-26T13:41:06.791Z,8.73
2022-11-26T13:43:59.582Z,7.80
2022-11-26T13:46:29.716Z,7.50
2022-11-26T13:49:01.215Z,7.33
2022-11-26T13:51:34.514Z,7.93
2022-11-26T13:54:08.453Z,8.20
2022-11-26T13:56:38.208Z,9.33
2022-11-26T13:59:09.578Z,8.33
2022-11-26T14:01:41.066Z,7.30
2022-11-26T14:04:09.954Z,7.40
2022-11-26T14:06:38.299Z,8.07
2022-11-26T14:09:06.645Z,7.73
2022-11-26T14:11:57.955Z,7.00
2022-11-26T14:14:33.019Z,6.63
2022-11-26T14:17:16.986Z,8.67
2022-11-26T14:20:14.893Z,8.37
2022-11-26T14:22:42.496Z,7.53
2022-11-26T14:25:15.619Z,8.30
2022-11-26T14:27:53.566Z,8.10
2022-11-26T14:30:24.019Z,8.13
2022-11-26T14:33:01.187Z,9.33
2022-11-26T14:35:33.879Z,8.13
2022-11-26T14:38:03.257Z,9.03
2022-11-26T14:40:32.741Z,10.13
2022-11-26T14:43:15.029Z,11.20
2022-11-26T14:45:43.373Z,10.80
2022-11-26T14:48:22.564Z,8.90
2022-11-26T14:50:51.373Z,8.60
2022-11-26T14:53:21.053Z,9.20
2022-11-26T14:55:49.016Z,10.50
2022-11-26T14:58:19.144Z,9.70
2022-11-26T15:01:03.122Z,8.53
2022-11-26T15:03:32.541Z,8.40
2022-11-26T15:06:00.228Z,10.27
2022-11-26T15:08:28.130Z,9.27
2022-11-26T15:10:58.707Z,8.10
2022-11-26T15:13:29.457Z,8.67
2022-11-26T15:15:58.940Z,8.83
2022-11-26T15:18:33.070Z,11.77
2022-11-26T15:21:03.404Z,11.23
2022-11-26T15:23:32.600Z,9.87
2022-11-26T15:26:01.055Z,11.10
2022-11-26T15:28:29.204Z,10.30
2022-11-26T15:30:59.429Z,9.83
2022-11-26T15:33:28.560Z,11.70
2022-11-26T15:35:58.009Z,12.27
2022-11-26T15:38:28.191Z,16.77
2022-11-26T15:40:57.305Z,18.80
2022-11-26T15:43:29.731Z,19.73
2022-11-26T15:45:59.940Z,12.60
2022-11-26T15:48:50.556Z,11.23
2022-11-26T15:51:23.211Z,11.37
2022-11-26T15:53:52.737Z,12.23
2022-11-26T15:56:22.473Z,10.97
2022-11-26T15:58:54.324Z,9.50
2022-11-26T16:01:24.368Z,10.97
2022-11-26T16:03:52.953Z,12.43
2022-11-26T16:06:29.926Z,9.97
2022-11-26T16:09:05.273Z,10.70
2022-11-26T16:11:36.583Z,13.70
2022-11-26T16:14:24.354Z,12.17
2022-11-26T16:16:52.784Z,9.40
2022-11-26T16:19:22.518Z,10.10
2022-11-26T16:21:51.707Z,10.00
2022-11-26T16:24:27.534Z,11.47
2022-11-26T16:26:57.500Z,10.47
2022-11-26T16:29:25.435Z,10.53
2022-11-26T16:31:53.126Z,11.77
2022-11-26T16:34:21.087Z,11.83
2022-11-26T16:36:49.006Z,11.93
2022-11-26T16:39:18.346Z,15.80
2022-11-26T16:41:47.336Z,29.30
2022-11-26T16:44:15.671Z,23.70
2022-11-26T16:46:44.899Z,17.70
2022-11-26T16:49:12.507Z,17.27
2022-11-26T16:51:40.072Z,18.93
2022-11-26T16:54:08.611Z,17.67
2022-11-26T16:56:38.784Z,17.47
2022-11-26T16:59:15.802Z,17.67
2022-11-26T17:01:43.362Z,19.20
2022-11-26T17:04:14.528Z,17.83
2022-11-26T17:06:43.241Z,18.03
2022-11-26T17:09:16.747Z,17.93
2022-11-26T17:11:44.329Z,19.67
2022-11-26T17:14:13.755Z,18.83
2022-11-26T17:16:41.789Z,16.53
2022-11-26T17:19:13.745Z,15.97
2022-11-26T17:21:41.387Z,15.33
2022-11-26T17:24:09.338Z,16.43
2022-11-26T17:26:36.972Z,15.70
2022-11-26T17:29:04.620Z,18.43
2022-11-26T17:31:33.617Z,15.10
2022-11-26T17:34:01.206Z,15.30
2022-11-26T17:36:35.314Z,15.43
2022-11-26T17:39:04.668Z,15.30
2022-11-26T17:41:32.236Z,14.27
2022-11-26T17:43:59.796Z,14.10
2022-11-26T17:46:27.441Z,18.00
2022-11-26T17:48:59.758Z,21.43
2022-11-26T17:51:27.713Z,24.10
2022-11-26T17:53:55.284Z,21.00
2022-11-26T17:56:24.328Z,23.17
2022-11-26T17:58:52.059Z,19.83
2022-11-26T18:01:20.280Z,20.13
2022-11-26T18:03:48.791Z,20.67
2022-11-26T18:06:19.465Z,18.90
2022-11-26T18:08:47.239Z,19.73
2022-11-26T18:11:17.048Z,21.23
2022-11-26T18:13:45.294Z,18.37
2022-11-26T18:16:12.989Z,17.27
2022-11-26T18:18:40.705Z,17.10
2022-11-26T18:21:08.243Z,17.73
2022-11-26T18:23:37.151Z,17.03
2022-11-26T18:26:04.805Z,20.17
2022-11-26T18:28:32.689Z,18.53
2022-11-26T18:31:00.520Z,18.83
2022-11-26T18:33:28.114Z,19.03
2022-11-26T18:35:55.700Z,19.90
2022-11-26T18:38:29.176Z,20.13
2022-11-26T18:41:03.452Z,21.20
2022-11-26T18:43:31.646Z,20.70
2022-11-26T18:45:59.438Z,19.70
2022-11-26T18:48:27.096Z,21.07
2022-11-26T18:50:57.946Z,20.07
2022-11-26T18:53:26.056Z,19.10
2022-11-26T18:55:54.021Z,20.67
2022-11-26T18:58:23.013Z,22.70
2022-11-26T19:00:51.030Z,19.80
2022-11-26T19:03:18.962Z,18.50
2022-11-26T19:05:49.640Z,22.13
2022-11-26T19:08:17.208Z,26.57
2022-11-26T19:10:44.864Z,34.73
2022-11-26T19:13:13.042Z,31.23
2022-11-26T19:15:43.347Z,27.60
2022-11-26T19:18:11.348Z,21.87
2022-11-26T19:20:38.951Z,18.87
2022-11-26T19:23:06.488Z,20.90
2022-11-26T19:25:34.890Z,21.80
2022-11-26T19:28:05.084Z,25.80
2022-11-26T19:30:33.188Z,26.97
2022-11-26T19:33:02.710Z,27.97
2022-11-26T19:35:30.259Z,31.00
2022-11-26T19:37:57.814Z,35.73
2022-11-26T19:40:25.395Z,31.07
2022-11-26T19:42:52.964Z,37.50
2022-11-26T19:45:20.513Z,28.77
2022-11-26T19:47:48.079Z,33.67
2022-11-26T19:50:17.464Z,27.83
2022-11-26T19:52:47.952Z,31.70
2022-11-26T19:55:16.024Z,27.93
2022-11-26T19:57:43.580Z,26.23
2022-11-26T20:00:13.050Z,19.07
2022-11-26T20:02:40.641Z,18.00
2022-11-26T20:05:09.284Z,21.70
2022-11-26T20:07:38.269Z,14.73
2022-11-26T20:10:06.792Z,18.13
2022-11-26T20:12:34.369Z,12.73
2022-11-26T20:15:01.991Z,10.90
2022-11-26T20:17:29.546Z,8.17
2022-11-26T20:19:57.110Z,9.17
2022-11-26T20:22:27.973Z,9.83
2022-11-26T20:24:57.168Z,9.10
2022-11-26T20:27:24.827Z,9.27
2022-11-26T20:29:52.405Z,8.93
2022-11-26T20:32:19.994Z,10.40
2022-11-26T20:34:47.528Z,11.13
2022-11-26T20:37:15.127Z,11.23
2022-11-26T20:39:42.926Z,11.30
2022-11-26T20:42:15.098Z,11.17
2022-11-26T20:44:42.855Z,12.40
2022-11-26T20:47:10.535Z,13.70
2022-11-26T20:49:42.980Z,13.97
2022-11-26T20:52:10.982Z,12.50
2022-11-26T20:54:38.730Z,12.90
2022-11-26T20:57:06.899Z,12.50
2022-11-26T20:59:35.936Z,12.00
2022-11-26T21:02:03.543Z,12.87
2022-11-26T21:04:31.421Z,13.53
2022-11-26T21:06:59.000Z,14.30
2022-11-26T21:09:26.814Z,15.13
2022-11-26T21:11:54.403Z,13.63
2022-11-26T21:14:22.034Z,15.83
2022-11-26T21:16:51.534Z,14.73
2022-11-26T21:19:19.192Z,15.17
2022-11-26T21:21:47.306Z,12.83
2022-11-26T21:24:15.286Z,11.97
2022-11-26T21:26:42.838Z,13.83
2022-11-26T21:29:10.426Z,13.90
2022-11-26T21:31:38.177Z,15.07
2022-11-26T21:34:08.893Z,13.20
2022-11-26T21:36:37.534Z,14.33
2022-11-26T21:39:06.238Z,15.60
2022-11-26T21:41:34.071Z,17.83
2022-11-26T21:44:03.724Z,17.27
2022-11-26T21:46:37.563Z,15.33
2022-11-26T21:49:08.266Z,13.60
2022-11-26T21:51:36.110Z,12.73
2022-11-26T21:54:03.866Z,12.83
2022-11-26T21:56:32.789Z,12.70
2022-11-26T21:59:01.701Z,11.93
2022-11-26T22:01:30.472Z,13.33
2022-11-26T22:04:00.115Z,14.63
2022-11-26T22:06:29.539Z,14.53
2022-11-26T22:08:57.235Z,14.57
2022-11-26T22:11:26.549Z,20.10
2022-11-26T22:13:54.546Z,16.97
2022-11-26T22:16:24.043Z,14.87
2022-11-26T22:18:52.256Z,12.77
2022-11-26T22:21:21.412Z,14.47
2022-11-26T22:23:50.886Z,12.87
2022-11-26T22:26:18.628Z,15.77
2022-11-26T22:28:46.413Z,13.83
2022-11-26T22:31:16.368Z,18.40
2022-11-26T22:33:43.970Z,13.33
2022-11-26T22:36:11.760Z,12.60
2022-11-26T22:38:41.191Z,12.80
2022-11-26T22:41:11.367Z,12.27
2022-11-26T22:43:39.001Z,14.07
2022-11-26T22:46:09.615Z,13.10
2022-11-26T22:48:37.318Z,14.30
2022-11-26T22:51:05.353Z,13.97
2022-11-26T22:53:33.302Z,13.03
2022-11-26T22:56:01.923Z,12.27
2022-11-26T22:58:31.766Z,15.20
2022-11-26T23:01:01.037Z,14.90
2022-11-26T23:03:30.039Z,13.30
2022-11-26T23:05:58.025Z,17.10
2022-11-26T23:08:25.596Z,13.97
2022-11-26T23:10:53.194Z,15.63
2022-11-26T23:13:20.750Z,14.30
2022-11-26T23:15:50.299Z,13.63
2022-11-26T23:18:17.950Z,11.63
2022-11-26T23:20:45.510Z,11.70
2022-11-26T23:23:14.012Z,10.27
2022-11-26T23:25:41.922Z,10.27
2022-11-26T23:28:09.931Z,17.83
2022-11-26T23:30:38.063Z,22.88
2022-11-26T23:33:07.027Z,11.73
2022-11-26T23:35:34.608Z,9.87
2022-11-26T23:38:02.367Z,11.20
2022-11-26T23:40:29.967Z,10.27
2022-11-26T23:42:57.809Z,11.97
2022-11-26T23:45:25.385Z,11.00
2022-11-26T23:47:53.019Z,12.43
2022-11-26T23:50:22.013Z,15.70
2022-11-26T23:52:49.565Z,14.33
2022-11-26T23:55:17.436Z,11.33
2022-11-26T23:57:45.035Z,13.40
